sensor_id;sensor_type;location;lat;lon;timestamp;temperature;humidity
37910;DHT22;23741;49.446;8.754;2022-11-20T00:00:47;10.30;70.60
37910;DHT22;23741;49.446;8.754;2022-11-20T00:02:49;10.30;70.70
37910;DHT22;23741;49.446;8.754;2022-11-20T00:04:51;10.30;70.70
37910;DHT22;23741;49.446;8.754;2022-11-20T00:06:52;10.30;70.70
37910;DHT22;23741;49.446;8.754;2022-11-20T00:08:58;10.30;70.60
37910;DHT22;23741;49.446;8.754;2022-11-20T00:11:04;10.30;70.50
37910;DHT22;23741;49.446;8.754;2022-11-20T00:13:06;10.30;70.40
37910;DHT22;23741;49.446;8.754;2022-11-20T00:15:08;10.30;70.40
37910;DHT22;23741;49.446;8.754;2022-11-20T00:17:10;10.30;70.30
37910;DHT22;23741;49.446;8.754;2022-11-20T00:19:11;10.30;70.10
37910;DHT22;23741;49.446;8.754;2022-11-20T00:21:17;10.30;70.10
37910;DHT22;23741;49.446;8.754;2022-11-20T00:23:19;10.20;70.10
37910;DHT22;23741;49.446;8.754;2022-11-20T00:25:21;10.20;70.00
37910;DHT22;23741;49.446;8.754;2022-11-20T00:27:23;10.20;70.20
37910;DHT22;23741;49.446;8.754;2022-11-20T00:29:25;10.20;70.30
37910;DHT22;23741;49.446;8.754;2022-11-20T00:31:27;10.20;70.40
37910;DHT22;23741;49.446;8.754;2022-11-20T00:33:29;10.20;70.60
37910;DHT22;23741;49.446;8.754;2022-11-20T00:35:31;10.20;70.70
37910;DHT22;23741;49.446;8.754;2022-11-20T00:37:32;10.20;70.70
37910;DHT22;23741;49.446;8.754;2022-11-20T00:39:34;10.20;70.60
37910;DHT22;23741;49.446;8.754;2022-11-20T00:41:36;10.20;70.70
37910;DHT22;23741;49.446;8.754;2022-11-20T00:43:38;10.20;70.80
37910;DHT22;23741;49.446;8.754;2022-11-20T00:45:39;10.20;70.70
37910;DHT22;23741;49.446;8.754;2022-11-20T00:47:41;10.20;70.70
37910;DHT22;23741;49.446;8.754;2022-11-20T00:49:43;10.20;70.80
37910;DHT22;23741;49.446;8.754;2022-11-20T00:51:45;10.20;70.80
37910;DHT22;23741;49.446;8.754;2022-11-20T00:53:47;10.20;70.80
37910;DHT22;23741;49.446;8.754;2022-11-20T00:55:53;10.20;70.80
37910;DHT22;23741;49.446;8.754;2022-11-20T00:57:55;10.20;70.80
37910;DHT22;23741;49.446;8.754;2022-11-20T00:59:57;10.20;70.80
37910;DHT22;23741;49.446;8.754;2022-11-20T01:01:58;10.20;70.80
37910;DHT22;23741;49.446;8.754;2022-11-20T01:04:00;10.20;70.70
37910;DHT22;23741;49.446;8.754;2022-11-20T01:06:02;10.20;70.80
37910;DHT22;23741;49.446;8.754;2022-11-20T01:08:04;10.20;70.70
37910;DHT22;23741;49.446;8.754;2022-11-20T01:10:06;10.20;70.70
37910;DHT22;23741;49.446;8.754;2022-11-20T01:12:08;10.20;70.60
37910;DHT22;23741;49.446;8.754;2022-11-20T01:14:11;10.20;70.70
37910;DHT22;23741;49.446;8.754;2022-11-20T01:18:17;10.20;70.50
37910;DHT22;23741;49.446;8.754;2022-11-20T01:20:19;10.20;70.50
37910;DHT22;23741;49.446;8.754;2022-11-20T01:22:21;10.20;70.40
37910;DHT22;23741;49.446;8.754;2022-11-20T01:24:22;10.20;70.50
37910;DHT22;23741;49.446;8.754;2022-11-20T01:26:26;10.20;70.50
37910;DHT22;23741;49.446;8.754;2022-11-20T01:28:28;10.20;71.20
37910;DHT22;23741;49.446;8.754;2022-11-20T01:30:30;10.20;70.50
37910;DHT22;23741;49.446;8.754;2022-11-20T01:32:31;10.20;70.60
37910;DHT22;23741;49.446;8.754;2022-11-20T01:34:33;10.20;70.50
37910;DHT22;23741;49.446;8.754;2022-11-20T01:36:35;10.20;70.60
37910;DHT22;23741;49.446;8.754;2022-11-20T01:38:37;10.20;70.70
37910;DHT22;23741;49.446;8.754;2022-11-20T01:40:39;10.10;70.70
37910;DHT22;23741;49.446;8.754;2022-11-20T01:42:44;10.20;70.80
37910;DHT22;23741;49.446;8.754;2022-11-20T01:49:33;10.20;70.80
37910;DHT22;23741;49.446;8.754;2022-11-20T01:51:42;10.20;70.80
37910;DHT22;23741;49.446;8.754;2022-11-20T01:53:45;10.20;70.80
37910;DHT22;23741;49.446;8.754;2022-11-20T01:55:49;10.20;70.80
37910;DHT22;23741;49.446;8.754;2022-11-20T01:57:51;10.10;70.70
37910;DHT22;23741;49.446;8.754;2022-11-20T02:00:00;10.20;70.80
37910;DHT22;23741;49.446;8.754;2022-11-20T02:02:12;10.10;70.60
37910;DHT22;23741;49.446;8.754;2022-11-20T02:04:14;10.10;70.70
37910;DHT22;23741;49.446;8.754;2022-11-20T02:06:19;10.10;70.70
37910;DHT22;23741;49.446;8.754;2022-11-20T02:08:22;10.10;70.80
37910;DHT22;23741;49.446;8.754;2022-11-20T02:10:24;10.10;70.90
37910;DHT22;23741;49.446;8.754;2022-11-20T02:12:27;10.10;70.90
37910;DHT22;23741;49.446;8.754;2022-11-20T02:14:47;10.10;70.90
37910;DHT22;23741;49.446;8.754;2022-11-20T02:16:49;10.20;71.00
37910;DHT22;23741;49.446;8.754;2022-11-20T02:18:51;10.10;70.80
37910;DHT22;23741;49.446;8.754;2022-11-20T02:20:54;10.10;70.90
37910;DHT22;23741;49.446;8.754;2022-11-20T02:24:58;10.10;70.90
37910;DHT22;23741;49.446;8.754;2022-11-20T02:27:06;10.10;70.80
37910;DHT22;23741;49.446;8.754;2022-11-20T02:29:09;10.10;70.70
37910;DHT22;23741;49.446;8.754;2022-11-20T02:31:13;10.10;70.60
37910;DHT22;23741;49.446;8.754;2022-11-20T02:33:14;10.10;70.60
37910;DHT22;23741;49.446;8.754;2022-11-20T02:37:21;10.10;70.70
37910;DHT22;23741;49.446;8.754;2022-11-20T02:39:24;10.10;70.50
37910;DHT22;23741;49.446;8.754;2022-11-20T02:41:30;10.10;71.40
37910;DHT22;23741;49.446;8.754;2022-11-20T02:43:32;10.10;70.50
37910;DHT22;23741;49.446;8.754;2022-11-20T02:45:33;10.00;70.60
37910;DHT22;23741;49.446;8.754;2022-11-20T02:47:35;10.00;70.50
37910;DHT22;23741;49.446;8.754;2022-11-20T02:49:37;10.00;70.50
37910;DHT22;23741;49.446;8.754;2022-11-20T02:51:38;10.00;70.50
37910;DHT22;23741;49.446;8.754;2022-11-20T02:53:40;10.00;70.50
37910;DHT22;23741;49.446;8.754;2022-11-20T02:55:41;10.00;70.80
37910;DHT22;23741;49.446;8.754;2022-11-20T02:57:43;10.00;70.80
37910;DHT22;23741;49.446;8.754;2022-11-20T02:59:45;10.00;70.80
37910;DHT22;23741;49.446;8.754;2022-11-20T03:01:46;10.00;70.80
37910;DHT22;23741;49.446;8.754;2022-11-20T03:03:48;10.00;71.00
37910;DHT22;23741;49.446;8.754;2022-11-20T03:05:50;10.00;71.10
37910;DHT22;23741;49.446;8.754;2022-11-20T03:07:52;10.00;71.20
37910;DHT22;23741;49.446;8.754;2022-11-20T03:09:53;10.00;71.20
37910;DHT22;23741;49.446;8.754;2022-11-20T03:11:55;10.00;71.10
37910;DHT22;23741;49.446;8.754;2022-11-20T03:13:57;10.00;71.10
37910;DHT22;23741;49.446;8.754;2022-11-20T03:15:58;10.00;71.40
37910;DHT22;23741;49.446;8.754;2022-11-20T03:18:05;10.00;72.20
37910;DHT22;23741;49.446;8.754;2022-11-20T03:20:07;10.00;71.40
37910;DHT22;23741;49.446;8.754;2022-11-20T03:22:10;10.00;71.50
37910;DHT22;23741;49.446;8.754;2022-11-20T03:24:12;10.00;71.40
37910;DHT22;23741;49.446;8.754;2022-11-20T03:26:23;10.10;71.60
37910;DHT22;23741;49.446;8.754;2022-11-20T03:28:25;10.10;71.80
37910;DHT22;23741;49.446;8.754;2022-11-20T03:30:27;10.10;71.90
37910;DHT22;23741;49.446;8.754;2022-11-20T03:32:31;10.10;71.90
37910;DHT22;23741;49.446;8.754;2022-11-20T03:34:33;10.10;71.90
37910;DHT22;23741;49.446;8.754;2022-11-20T03:36:34;10.10;71.70
37910;DHT22;23741;49.446;8.754;2022-11-20T03:38:36;10.20;71.60
37910;DHT22;23741;49.446;8.754;2022-11-20T03:40:38;10.20;71.60
37910;DHT22;23741;49.446;8.754;2022-11-20T03:42:40;10.20;71.60
37910;DHT22;23741;49.446;8.754;2022-11-20T03:44:47;10.10;71.70
37910;DHT22;23741;49.446;8.754;2022-11-20T03:46:49;10.10;71.80
37910;DHT22;23741;49.446;8.754;2022-11-20T03:48:51;10.10;72.00
37910;DHT22;23741;49.446;8.754;2022-11-20T03:50:53;10.10;72.10
37910;DHT22;23741;49.446;8.754;2022-11-20T03:52:55;10.10;72.20
37910;DHT22;23741;49.446;8.754;2022-11-20T03:54:56;10.10;72.20
37910;DHT22;23741;49.446;8.754;2022-11-20T03:56:58;10.20;72.10
37910;DHT22;23741;49.446;8.754;2022-11-20T03:59:00;10.20;72.10
37910;DHT22;23741;49.446;8.754;2022-11-20T04:01:08;10.20;72.10
37910;DHT22;23741;49.446;8.754;2022-11-20T04:03:10;10.20;72.10
37910;DHT22;23741;49.446;8.754;2022-11-20T04:05:11;10.20;72.00
37910;DHT22;23741;49.446;8.754;2022-11-20T04:07:13;10.20;72.00
37910;DHT22;23741;49.446;8.754;2022-11-20T04:09:15;10.20;72.00
37910;DHT22;23741;49.446;8.754;2022-11-20T04:11:18;10.20;72.00
37910;DHT22;23741;49.446;8.754;2022-11-20T04:13:20;10.20;72.10
37910;DHT22;23741;49.446;8.754;2022-11-20T04:15:21;10.20;71.90
37910;DHT22;23741;49.446;8.754;2022-11-20T04:17:23;10.30;72.10
37910;DHT22;23741;49.446;8.754;2022-11-20T04:19:25;10.30;72.30
37910;DHT22;23741;49.446;8.754;2022-11-20T04:21:27;10.20;72.10
37910;DHT22;23741;49.446;8.754;2022-11-20T04:23:29;10.30;72.20
37910;DHT22;23741;49.446;8.754;2022-11-20T04:25:30;10.30;72.20
37910;DHT22;23741;49.446;8.754;2022-11-20T04:27:32;10.30;72.20
37910;DHT22;23741;49.446;8.754;2022-11-20T04:29:34;10.40;72.30
37910;DHT22;23741;49.446;8.754;2022-11-20T04:31:35;10.30;72.20
37910;DHT22;23741;49.446;8.754;2022-11-20T04:33:37;10.40;72.50
37910;DHT22;23741;49.446;8.754;2022-11-20T04:35:38;10.40;72.30
37910;DHT22;23741;49.446;8.754;2022-11-20T04:37:40;10.40;72.30
37910;DHT22;23741;49.446;8.754;2022-11-20T04:39:42;10.40;72.30
37910;DHT22;23741;49.446;8.754;2022-11-20T04:41:43;10.40;72.30
37910;DHT22;23741;49.446;8.754;2022-11-20T04:43:46;10.40;72.50
37910;DHT22;23741;49.446;8.754;2022-11-20T04:45:51;10.40;72.50
37910;DHT22;23741;49.446;8.754;2022-11-20T04:47:53;10.50;72.20
37910;DHT22;23741;49.446;8.754;2022-11-20T04:49:55;10.40;72.10
37910;DHT22;23741;49.446;8.754;2022-11-20T04:51:57;10.40;73.00
37910;DHT22;23741;49.446;8.754;2022-11-20T04:53:58;10.50;72.40
37910;DHT22;23741;49.446;8.754;2022-11-20T04:56:00;10.40;72.40
37910;DHT22;23741;49.446;8.754;2022-11-20T04:58:02;10.50;72.30
37910;DHT22;23741;49.446;8.754;2022-11-20T05:00:04;10.50;72.20
37910;DHT22;23741;49.446;8.754;2022-11-20T05:02:06;10.50;72.30
37910;DHT22;23741;49.446;8.754;2022-11-20T05:04:08;10.50;72.50
37910;DHT22;23741;49.446;8.754;2022-11-20T05:06:10;10.50;72.60
37910;DHT22;23741;49.446;8.754;2022-11-20T05:08:12;10.50;72.50
37910;DHT22;23741;49.446;8.754;2022-11-20T05:10:14;10.50;72.50
37910;DHT22;23741;49.446;8.754;2022-11-20T05:12:16;10.60;72.60
37910;DHT22;23741;49.446;8.754;2022-11-20T05:14:17;10.60;72.60
37910;DHT22;23741;49.446;8.754;2022-11-20T05:16:20;10.60;72.70
37910;DHT22;23741;49.446;8.754;2022-11-20T05:18:22;10.60;72.80
37910;DHT22;23741;49.446;8.754;2022-11-20T05:20:23;10.70;72.60
37910;DHT22;23741;49.446;8.754;2022-11-20T05:22:25;10.70;72.60
37910;DHT22;23741;49.446;8.754;2022-11-20T05:24:27;10.70;72.70
37910;DHT22;23741;49.446;8.754;2022-11-20T05:26:28;10.70;72.70
37910;DHT22;23741;49.446;8.754;2022-11-20T05:28:30;10.70;72.70
37910;DHT22;23741;49.446;8.754;2022-11-20T05:30:32;10.70;72.80
37910;DHT22;23741;49.446;8.754;2022-11-20T05:32:34;10.70;72.60
37910;DHT22;23741;49.446;8.754;2022-11-20T05:34:35;10.70;72.60
37910;DHT22;23741;49.446;8.754;2022-11-20T05:36:37;10.80;72.60
37910;DHT22;23741;49.446;8.754;2022-11-20T05:38:39;10.70;72.40
37910;DHT22;23741;49.446;8.754;2022-11-20T05:40:40;10.80;72.40
37910;DHT22;23741;49.446;8.754;2022-11-20T05:42:42;10.80;72.40
37910;DHT22;23741;49.446;8.754;2022-11-20T05:44:45;10.70;72.50
37910;DHT22;23741;49.446;8.754;2022-11-20T05:46:46;10.80;72.70
37910;DHT22;23741;49.446;8.754;2022-11-20T05:48:48;10.80;72.70
37910;DHT22;23741;49.446;8.754;2022-11-20T05:50:49;10.80;72.70
37910;DHT22;23741;49.446;8.754;2022-11-20T05:52:51;10.80;72.70
37910;DHT22;23741;49.446;8.754;2022-11-20T05:54:53;10.80;72.70
37910;DHT22;23741;49.446;8.754;2022-11-20T05:56:54;10.80;72.70
37910;DHT22;23741;49.446;8.754;2022-11-20T05:58:56;10.80;72.60
37910;DHT22;23741;49.446;8.754;2022-11-20T06:01:05;10.90;72.50
37910;DHT22;23741;49.446;8.754;2022-11-20T06:03:07;10.80;72.50
37910;DHT22;23741;49.446;8.754;2022-11-20T06:05:09;10.90;72.50
37910;DHT22;23741;49.446;8.754;2022-11-20T06:07:11;10.90;72.60
37910;DHT22;23741;49.446;8.754;2022-11-20T06:09:12;10.90;72.80
37910;DHT22;23741;49.446;8.754;2022-11-20T06:11:14;10.90;72.70
37910;DHT22;23741;49.446;8.754;2022-11-20T06:13:16;10.90;72.70
37910;DHT22;23741;49.446;8.754;2022-11-20T06:15:17;10.90;72.70
37910;DHT22;23741;49.446;8.754;2022-11-20T06:17:19;10.90;72.60
37910;DHT22;23741;49.446;8.754;2022-11-20T06:19:21;10.90;72.70
37910;DHT22;23741;49.446;8.754;2022-11-20T06:21:23;10.90;72.70
37910;DHT22;23741;49.446;8.754;2022-11-20T06:23:25;10.90;72.70
37910;DHT22;23741;49.446;8.754;2022-11-20T06:25:26;11.00;72.80
37910;DHT22;23741;49.446;8.754;2022-11-20T06:27:28;11.00;72.90
37910;DHT22;23741;49.446;8.754;2022-11-20T06:29:30;11.00;72.80
37910;DHT22;23741;49.446;8.754;2022-11-20T06:31:34;11.00;73.00
37910;DHT22;23741;49.446;8.754;2022-11-20T06:33:39;11.00;73.10
37910;DHT22;23741;49.446;8.754;2022-11-20T06:35:40;11.00;73.10
37910;DHT22;23741;49.446;8.754;2022-11-20T06:37:42;11.10;73.10
37910;DHT22;23741;49.446;8.754;2022-11-20T06:39:44;11.10;73.00
37910;DHT22;23741;49.446;8.754;2022-11-20T06:41:45;11.10;73.00
37910;DHT22;23741;49.446;8.754;2022-11-20T06:43:47;11.10;73.10
37910;DHT22;23741;49.446;8.754;2022-11-20T06:45:52;11.10;73.20
37910;DHT22;23741;49.446;8.754;2022-11-20T06:47:56;11.20;72.90
37910;DHT22;23741;49.446;8.754;2022-11-20T06:49:58;11.20;72.80
37910;DHT22;23741;49.446;8.754;2022-11-20T06:52:00;11.20;72.70
37910;DHT22;23741;49.446;8.754;2022-11-20T06:54:01;11.20;72.70
37910;DHT22;23741;49.446;8.754;2022-11-20T06:56:03;11.20;72.50
37910;DHT22;23741;49.446;8.754;2022-11-20T06:58:05;11.20;72.40
37910;DHT22;23741;49.446;8.754;2022-11-20T07:00:07;11.20;72.40
37910;DHT22;23741;49.446;8.754;2022-11-20T07:02:10;11.20;72.60
37910;DHT22;23741;49.446;8.754;2022-11-20T07:04:12;11.20;72.60
37910;DHT22;23741;49.446;8.754;2022-11-20T07:06:13;11.20;72.50
37910;DHT22;23741;49.446;8.754;2022-11-20T07:08:15;11.20;72.60
37910;DHT22;23741;49.446;8.754;2022-11-20T07:10:17;11.10;72.60
37910;DHT22;23741;49.446;8.754;2022-11-20T07:12:18;11.20;72.50
37910;DHT22;23741;49.446;8.754;2022-11-20T07:14:20;11.20;72.80
37910;DHT22;23741;49.446;8.754;2022-11-20T07:16:22;11.20;72.90
37910;DHT22;23741;49.446;8.754;2022-11-20T07:18:24;11.10;72.70
37910;DHT22;23741;49.446;8.754;2022-11-20T07:20:25;11.20;72.60
37910;DHT22;23741;49.446;8.754;2022-11-20T07:22:27;11.10;72.60
37910;DHT22;23741;49.446;8.754;2022-11-20T07:24:28;11.20;72.70
37910;DHT22;23741;49.446;8.754;2022-11-20T07:26:30;11.10;72.70
37910;DHT22;23741;49.446;8.754;2022-11-20T07:28:32;11.10;72.70
37910;DHT22;23741;49.446;8.754;2022-11-20T07:30:34;11.10;72.80
37910;DHT22;23741;49.446;8.754;2022-11-20T07:32:35;11.10;73.00
37910;DHT22;23741;49.446;8.754;2022-11-20T07:34:37;11.20;73.30
37910;DHT22;23741;49.446;8.754;2022-11-20T07:36:39;11.20;73.30
37910;DHT22;23741;49.446;8.754;2022-11-20T07:38:40;11.20;73.40
37910;DHT22;23741;49.446;8.754;2022-11-20T07:40:42;11.20;73.20
37910;DHT22;23741;49.446;8.754;2022-11-20T07:42:50;11.20;73.20
37910;DHT22;23741;49.446;8.754;2022-11-20T07:44:52;11.20;73.90
37910;DHT22;23741;49.446;8.754;2022-11-20T07:46:54;11.30;73.20
37910;DHT22;23741;49.446;8.754;2022-11-20T07:48:56;11.20;73.00
37910;DHT22;23741;49.446;8.754;2022-11-20T07:50:58;11.30;73.00
37910;DHT22;23741;49.446;8.754;2022-11-20T07:53:00;11.30;73.00
37910;DHT22;23741;49.446;8.754;2022-11-20T07:55:02;11.20;73.00
37910;DHT22;23741;49.446;8.754;2022-11-20T07:57:03;11.30;73.00
37910;DHT22;23741;49.446;8.754;2022-11-20T07:59:05;11.30;72.80
37910;DHT22;23741;49.446;8.754;2022-11-20T08:01:07;11.30;72.80
37910;DHT22;23741;49.446;8.754;2022-11-20T08:03:09;11.30;73.00
37910;DHT22;23741;49.446;8.754;2022-11-20T08:05:10;11.30;73.10
37910;DHT22;23741;49.446;8.754;2022-11-20T08:07:12;11.30;73.20
37910;DHT22;23741;49.446;8.754;2022-11-20T08:09:14;11.30;73.00
37910;DHT22;23741;49.446;8.754;2022-11-20T08:11:16;11.30;73.00
37910;DHT22;23741;49.446;8.754;2022-11-20T08:13:36;11.30;73.00
37910;DHT22;23741;49.446;8.754;2022-11-20T08:15:56;11.30;73.00
37910;DHT22;23741;49.446;8.754;2022-11-20T08:18:01;11.30;73.00
37910;DHT22;23741;49.446;8.754;2022-11-20T08:20:23;11.30;73.00
37910;DHT22;23741;49.446;8.754;2022-11-20T08:22:24;11.30;73.10
37910;DHT22;23741;49.446;8.754;2022-11-20T08:24:26;11.30;73.10
37910;DHT22;23741;49.446;8.754;2022-11-20T08:26:28;11.30;73.20
37910;DHT22;23741;49.446;8.754;2022-11-20T08:28:30;11.40;73.20
37910;DHT22;23741;49.446;8.754;2022-11-20T08:30:32;11.40;73.00
37910;DHT22;23741;49.446;8.754;2022-11-20T08:32:34;11.30;72.90
37910;DHT22;23741;49.446;8.754;2022-11-20T08:34:37;11.30;72.90
37910;DHT22;23741;49.446;8.754;2022-11-20T08:36:39;11.40;73.00
37910;DHT22;23741;49.446;8.754;2022-11-20T08:38:40;11.30;73.10
37910;DHT22;23741;49.446;8.754;2022-11-20T08:40:42;11.30;73.00
37910;DHT22;23741;49.446;8.754;2022-11-20T08:43:04;11.40;73.10
37910;DHT22;23741;49.446;8.754;2022-11-20T08:45:05;11.40;73.20
37910;DHT22;23741;49.446;8.754;2022-11-20T08:47:07;11.40;73.40
37910;DHT22;23741;49.446;8.754;2022-11-20T08:49:10;11.40;73.40
37910;DHT22;23741;49.446;8.754;2022-11-20T08:51:12;11.40;73.40
37910;DHT22;23741;49.446;8.754;2022-11-20T08:53:14;11.40;73.40
37910;DHT22;23741;49.446;8.754;2022-11-20T08:55:15;11.50;73.40
37910;DHT22;23741;49.446;8.754;2022-11-20T08:57:17;11.40;73.30
37910;DHT22;23741;49.446;8.754;2022-11-20T08:59:19;11.50;73.40
37910;DHT22;23741;49.446;8.754;2022-11-20T09:01:40;11.50;73.50
37910;DHT22;23741;49.446;8.754;2022-11-20T09:03:42;11.50;73.50
37910;DHT22;23741;49.446;8.754;2022-11-20T09:05:44;11.50;73.50
37910;DHT22;23741;49.446;8.754;2022-11-20T09:07:46;11.60;73.60
37910;DHT22;23741;49.446;8.754;2022-11-20T09:09:47;11.60;73.50
37910;DHT22;23741;49.446;8.754;2022-11-20T09:12:09;11.60;73.40
37910;DHT22;23741;49.446;8.754;2022-11-20T09:14:11;11.60;73.40
37910;DHT22;23741;49.446;8.754;2022-11-20T09:16:12;11.60;73.40
37910;DHT22;23741;49.446;8.754;2022-11-20T09:18:14;11.60;74.10
37910;DHT22;23741;49.446;8.754;2022-11-20T09:20:16;11.60;73.30
37910;DHT22;23741;49.446;8.754;2022-11-20T09:22:18;11.70;73.40
37910;DHT22;23741;49.446;8.754;2022-11-20T09:24:19;11.70;73.60
37910;DHT22;23741;49.446;8.754;2022-11-20T09:26:22;11.70;73.60
37910;DHT22;23741;49.446;8.754;2022-11-20T09:28:24;11.70;73.60
37910;DHT22;23741;49.446;8.754;2022-11-20T09:30:26;11.70;73.60
37910;DHT22;23741;49.446;8.754;2022-11-20T09:32:28;11.70;73.50
37910;DHT22;23741;49.446;8.754;2022-11-20T09:34:29;11.80;73.40
37910;DHT22;23741;49.446;8.754;2022-11-20T09:36:31;11.70;73.20
37910;DHT22;23741;49.446;8.754;2022-11-20T09:38:35;11.80;73.40
37910;DHT22;23741;49.446;8.754;2022-11-20T09:40:38;11.80;73.50
37910;DHT22;23741;49.446;8.754;2022-11-20T09:42:45;11.80;73.20
37910;DHT22;23741;49.446;8.754;2022-11-20T09:55:12;11.80;73.30
37910;DHT22;23741;49.446;8.754;2022-11-20T09:57:17;11.80;73.30
37910;DHT22;23741;49.446;8.754;2022-11-20T10:01:31;11.80;73.30
37910;DHT22;23741;49.446;8.754;2022-11-20T10:03:53;11.80;73.40
37910;DHT22;23741;49.446;8.754;2022-11-20T10:05:55;11.80;73.50
37910;DHT22;23741;49.446;8.754;2022-11-20T10:10:56;11.80;73.50
37910;DHT22;23741;49.446;8.754;2022-11-20T10:12:52;11.80;73.40
37910;DHT22;23741;49.446;8.754;2022-11-20T10:15:01;11.80;73.50
37910;DHT22;23741;49.446;8.754;2022-11-20T10:17:23;11.90;73.70
37910;DHT22;23741;49.446;8.754;2022-11-20T10:23:56;11.90;73.40
37910;DHT22;23741;49.446;8.754;2022-11-20T10:26:02;11.90;73.40
37910;DHT22;23741;49.446;8.754;2022-11-20T10:30:10;11.90;73.50
37910;DHT22;23741;49.446;8.754;2022-11-20T10:32:16;12.00;73.60
37910;DHT22;23741;49.446;8.754;2022-11-20T10:36:26;12.00;73.50
37910;DHT22;23741;49.446;8.754;2022-11-20T10:38:31;12.00;73.70
37910;DHT22;23741;49.446;8.754;2022-11-20T10:42:44;12.00;73.70
37910;DHT22;23741;49.446;8.754;2022-11-20T10:44:48;12.00;74.30
37910;DHT22;23741;49.446;8.754;2022-11-20T10:47:11;12.00;73.40
37910;DHT22;23741;49.446;8.754;2022-11-20T10:49:17;12.00;73.50
37910;DHT22;23741;49.446;8.754;2022-11-20T10:51:27;12.00;73.40
37910;DHT22;23741;49.446;8.754;2022-11-20T10:56:11;12.10;73.50
37910;DHT22;23741;49.446;8.754;2022-11-20T10:58:28;12.10;73.30
37910;DHT22;23741;49.446;8.754;2022-11-20T11:00:35;12.10;73.20
37910;DHT22;23741;49.446;8.754;2022-11-20T11:02:41;12.10;73.20
37910;DHT22;23741;49.446;8.754;2022-11-20T11:04:49;12.10;73.30
37910;DHT22;23741;49.446;8.754;2022-11-20T11:06:51;12.10;73.20
37910;DHT22;23741;49.446;8.754;2022-11-20T11:08:56;12.00;73.10
37910;DHT22;23741;49.446;8.754;2022-11-20T11:11:00;12.10;73.20
37910;DHT22;23741;49.446;8.754;2022-11-20T11:13:04;12.10;73.30
37910;DHT22;23741;49.446;8.754;2022-11-20T11:15:11;12.10;73.40
37910;DHT22;23741;49.446;8.754;2022-11-20T11:19:21;12.10;73.40
37910;DHT22;23741;49.446;8.754;2022-11-20T11:21:24;12.10;73.40
37910;DHT22;23741;49.446;8.754;2022-11-20T11:23:33;12.10;73.20
37910;DHT22;23741;49.446;8.754;2022-11-20T11:25:36;12.10;73.00
37910;DHT22;23741;49.446;8.754;2022-11-20T11:27:48;12.10;73.00
37910;DHT22;23741;49.446;8.754;2022-11-20T11:29:50;12.10;72.90
37910;DHT22;23741;49.446;8.754;2022-11-20T11:34:08;12.10;72.90
37910;DHT22;23741;49.446;8.754;2022-11-20T11:36:16;12.00;73.00
37910;DHT22;23741;49.446;8.754;2022-11-20T11:38:21;12.10;73.00
37910;DHT22;23741;49.446;8.754;2022-11-20T11:40:24;12.10;73.10
37910;DHT22;23741;49.446;8.754;2022-11-20T11:42:28;12.10;73.20
37910;DHT22;23741;49.446;8.754;2022-11-20T11:44:31;12.10;73.20
37910;DHT22;23741;49.446;8.754;2022-11-20T11:46:53;12.10;73.20
37910;DHT22;23741;49.446;8.754;2022-11-20T11:51:07;12.10;73.00
37910;DHT22;23741;49.446;8.754;2022-11-20T11:53:13;12.10;73.00
37910;DHT22;23741;49.446;8.754;2022-11-20T11:56:03;12.20;73.20
37910;DHT22;23741;49.446;8.754;2022-11-20T12:01:59;12.20;72.70
37910;DHT22;23741;49.446;8.754;2022-11-20T12:06:23;12.10;72.60
37910;DHT22;23741;49.446;8.754;2022-11-20T12:12:31;12.10;73.00
37910;DHT22;23741;49.446;8.754;2022-11-20T12:14:35;12.10;73.10
37910;DHT22;23741;49.446;8.754;2022-11-20T12:16:38;12.10;73.40
37910;DHT22;23741;49.446;8.754;2022-11-20T12:18:40;12.20;73.50
37910;DHT22;23741;49.446;8.754;2022-11-20T12:20:45;12.20;73.60
37910;DHT22;23741;49.446;8.754;2022-11-20T12:22:53;12.20;73.60
37910;DHT22;23741;49.446;8.754;2022-11-20T12:25:10;12.30;73.60
37910;DHT22;23741;49.446;8.754;2022-11-20T12:36:37;12.40;73.10
37910;DHT22;23741;49.446;8.754;2022-11-20T12:43:20;12.50;73.30
37910;DHT22;23741;49.446;8.754;2022-11-20T12:49:50;12.50;73.40
37910;DHT22;23741;49.446;8.754;2022-11-20T12:52:32;12.60;73.40
37910;DHT22;23741;49.446;8.754;2022-11-20T12:58:29;12.70;73.30
37910;DHT22;23741;49.446;8.754;2022-11-20T13:00:34;12.70;73.30
37910;DHT22;23741;49.446;8.754;2022-11-20T13:02:44;12.70;73.40
37910;DHT22;23741;49.446;8.754;2022-11-20T13:07:11;12.80;73.30
37910;DHT22;23741;49.446;8.754;2022-11-20T13:09:15;12.80;73.20
37910;DHT22;23741;49.446;8.754;2022-11-20T13:19:39;12.80;72.90
37910;DHT22;23741;49.446;8.754;2022-11-20T13:21:42;12.80;72.70
37910;DHT22;23741;49.446;8.754;2022-11-20T13:23:45;12.90;72.60
37910;DHT22;23741;49.446;8.754;2022-11-20T13:25:47;12.90;72.40
37910;DHT22;23741;49.446;8.754;2022-11-20T13:27:50;12.80;71.80
37910;DHT22;23741;49.446;8.754;2022-11-20T13:29:58;12.80;71.80
37910;DHT22;23741;49.446;8.754;2022-11-20T13:32:05;12.80;71.70
37910;DHT22;23741;49.446;8.754;2022-11-20T13:34:09;12.80;71.80
37910;DHT22;23741;49.446;8.754;2022-11-20T13:36:23;12.80;71.90
37910;DHT22;23741;49.446;8.754;2022-11-20T13:38:25;12.80;72.10
37910;DHT22;23741;49.446;8.754;2022-11-20T13:40:34;12.70;71.90
37910;DHT22;23741;49.446;8.754;2022-11-20T13:42:43;12.70;72.00
37910;DHT22;23741;49.446;8.754;2022-11-20T13:44:53;12.70;72.10
37910;DHT22;23741;49.446;8.754;2022-11-20T13:46:55;12.80;72.20
37910;DHT22;23741;49.446;8.754;2022-11-20T13:48:57;12.80;72.30
37910;DHT22;23741;49.446;8.754;2022-11-20T14:01:54;12.80;72.20
37910;DHT22;23741;49.446;8.754;2022-11-20T14:03:56;12.80;72.20
37910;DHT22;23741;49.446;8.754;2022-11-20T14:06:11;12.80;72.10
37910;DHT22;23741;49.446;8.754;2022-11-20T14:08:20;12.80;71.90
37910;DHT22;23741;49.446;8.754;2022-11-20T14:10:24;12.90;72.00
37910;DHT22;23741;49.446;8.754;2022-11-20T14:12:33;12.90;71.90
37910;DHT22;23741;49.446;8.754;2022-11-20T14:14:35;12.90;71.40
37910;DHT22;23741;49.446;8.754;2022-11-20T14:16:37;12.90;71.10
37910;DHT22;23741;49.446;8.754;2022-11-20T14:18:40;12.90;70.80
37910;DHT22;23741;49.446;8.754;2022-11-20T14:20:42;12.80;71.00
37910;DHT22;23741;49.446;8.754;2022-11-20T14:22:48;12.80;70.90
37910;DHT22;23741;49.446;8.754;2022-11-20T14:27:14;12.80;70.40
37910;DHT22;23741;49.446;8.754;2022-11-20T14:29:17;12.80;70.20
37910;DHT22;23741;49.446;8.754;2022-11-20T14:31:23;12.70;69.90
37910;DHT22;23741;49.446;8.754;2022-11-20T14:33:26;12.70;69.70
37910;DHT22;23741;49.446;8.754;2022-11-20T14:35:34;12.70;68.90
37910;DHT22;23741;49.446;8.754;2022-11-20T14:37:37;12.70;70.10
37910;DHT22;23741;49.446;8.754;2022-11-20T14:39:42;12.60;69.00
37910;DHT22;23741;49.446;8.754;2022-11-20T14:41:51;12.60;69.00
37910;DHT22;23741;49.446;8.754;2022-11-20T14:43:56;12.50;68.80